sensor_id;sensor_type;location;lat;lon;timestamp;pressure;altitude;pressure_sealevel;temperature;humidity
56420;BME280;42323;52.170;7.538;2022-10-17T00:00:34;101411.47;;;13.04;100.00
56420;BME280;42323;52.170;7.538;2022-10-17T00:03:01;101409.94;;;13.01;100.00
56420;BME280;42323;52.170;7.538;2022-10-17T00:05:40;101416.28;;;13.00;100.00
56420;BME280;42323;52.170;7.538;2022-10-17T00:08:08;101414.97;;;13.04;100.00
56420;BME280;42323;52.170;7.538;2022-10-17T00:10:35;101406.59;;;12.99;100.00
56420;BME280;42323;52.170;7.538;2022-10-17T00:13:02;101414.28;;;13.02;100.00
56420;BME280;42323;52.170;7.538;2022-10-17T00:15:29;101413.44;;;13.02;100.00
56420;BME280;42323;52.170;7.538;2022-10-17T00:17:56;101408.94;;;13.02;100.00
56420;BME280;42323;52.170;7.538;2022-10-17T00:20:23;101400.25;;;13.00;100.00
56420;BME280;42323;52.170;7.538;2022-10-17T00:22:50;101381.03;;;12.97;100.00
56420;BME280;42323;52.170;7.538;2022-10-17T00:25:17;101379.19;;;12.97;100.00
56420;BME280;42323;52.170;7.538;2022-10-17T00:27:44;101372.25;;;13.04;100.00
56420;BME280;42323;52.170;7.538;2022-10-17T00:30:12;101378.44;;;13.05;100.00
56420;BME280;42323;52.170;7.538;2022-10-17T00:32:39;101383.91;;;13.03;100.00
56420;BME280;42323;52.170;7.538;2022-10-17T00:35:07;101381.03;;;12.97;100.00
56420;BME280;42323;52.170;7.538;2022-10-17T00:37:34;101387.91;;;12.99;100.00
56420;BME280;42323;52.170;7.538;2022-10-17T00:40:02;101393.91;;;13.01;100.00
56420;BME280;42323;52.170;7.538;2022-10-17T00:42:29;101388.88;;;12.98;100.00
56420;BME280;42323;52.170;7.538;2022-10-17T00:45:00;101395.91;;;12.99;100.00
56420;BME280;42323;52.170;7.538;2022-10-17T00:47:29;101394.22;;;12.98;100.00
56420;BME280;42323;52.170;7.538;2022-10-17T00:49:57;101402.91;;;13.00;100.00
56420;BME280;42323;52.170;7.538;2022-10-17T00:52:26;101400.63;;;13.05;100.00
56420;BME280;42323;52.170;7.538;2022-10-17T00:55:10;101405.59;;;13.00;100.00
56420;BME280;42323;52.170;7.538;2022-10-17T00:57:38;101385.38;;;12.98;100.00
56420;BME280;42323;52.170;7.538;2022-10-17T01:00:08;101385.38;;;12.98;100.00
56420;BME280;42323;52.170;7.538;2022-10-17T01:02:35;101378.69;;;12.94;100.00
56420;BME280;42323;52.170;7.538;2022-10-17T01:05:03;101372.81;;;12.90;100.00
56420;BME280;42323;52.170;7.538;2022-10-17T01:07:30;101372.81;;;12.90;100.00
56420;BME280;42323;52.170;7.538;2022-10-17T01:10:05;101365.75;;;12.89;100.00
56420;BME280;42323;52.170;7.538;2022-10-17T01:12:47;101369.44;;;12.88;100.00
56420;BME280;42323;52.170;7.538;2022-10-17T01:24:19;101351.56;;;12.88;100.00
56420;BME280;42323;52.170;7.538;2022-10-17T01:32:44;101355.50;;;12.94;100.00
56420;BME280;42323;52.170;7.538;2022-10-17T01:38:03;101354.19;;;12.98;100.00
56420;BME280;42323;52.170;7.538;2022-10-17T01:40:48;101351.19;;;13.01;100.00
56420;BME280;42323;52.170;7.538;2022-10-17T01:43:23;101352.03;;;13.02;100.00
56420;BME280;42323;52.170;7.538;2022-10-17T01:45:57;101354.72;;;13.02;100.00
56420;BME280;42323;52.170;7.538;2022-10-17T01:48:31;101336.34;;;12.99;100.00
56420;BME280;42323;52.170;7.538;2022-10-17T01:51:32;101347.06;;;13.07;100.00
56420;BME280;42323;52.170;7.538;2022-10-17T01:54:05;101343.41;;;13.08;100.00
56420;BME280;42323;52.170;7.538;2022-10-17T01:56:36;101338.38;;;13.05;100.00
56420;BME280;42323;52.170;7.538;2022-10-17T01:59:10;101334.88;;;13.04;100.00
56420;BME280;42323;52.170;7.538;2022-10-17T02:01:40;101334.88;;;13.04;100.00
56420;BME280;42323;52.170;7.538;2022-10-17T02:04:08;101338.91;;;13.08;100.00
56420;BME280;42323;52.170;7.538;2022-10-17T02:06:36;101340.59;;;13.09;100.00
56420;BME280;42323;52.170;7.538;2022-10-17T02:09:21;101345.09;;;13.09;100.00
56420;BME280;42323;52.170;7.538;2022-10-17T02:12:21;101344.94;;;13.10;100.00
56420;BME280;42323;52.170;7.538;2022-10-17T02:15:30;101345.25;;;13.07;100.00
56420;BME280;42323;52.170;7.538;2022-10-17T02:23:31;101313.09;;;12.91;100.00
56420;BME280;42323;52.170;7.538;2022-10-17T02:26:11;101319.78;;;12.95;100.00
56420;BME280;42323;52.170;7.538;2022-10-17T02:28:46;101286.41;;;12.73;100.00
56420;BME280;42323;52.170;7.538;2022-10-17T02:31:25;101321.94;;;12.92;100.00
56420;BME280;42323;52.170;7.538;2022-10-17T02:33:57;101320.09;;;12.92;100.00
56420;BME280;42323;52.170;7.538;2022-10-17T02:36:31;101326.72;;;12.88;100.00
56420;BME280;42323;52.170;7.538;2022-10-17T02:39:01;101331.22;;;12.87;100.00
56420;BME280;42323;52.170;7.538;2022-10-17T02:41:30;101326.72;;;12.88;100.00
56420;BME280;42323;52.170;7.538;2022-10-17T02:43:58;101315.69;;;12.83;100.00
56420;BME280;42323;52.170;7.538;2022-10-17T02:46:29;101306.97;;;12.81;100.00
56420;BME280;42323;52.170;7.538;2022-10-17T02:49:08;101313.84;;;12.83;100.00
56420;BME280;42323;52.170;7.538;2022-10-17T02:54:43;101317.81;;;12.79;100.00
56420;BME280;42323;52.170;7.538;2022-10-17T02:57:22;101332.00;;;12.80;100.00
56420;BME280;42323;52.170;7.538;2022-10-17T02:59:50;101326.34;;;12.83;100.00
56420;BME280;42323;52.170;7.538;2022-10-17T03:02:17;101327.50;;;12.80;100.00
56420;BME280;42323;52.170;7.538;2022-10-17T03:04:45;101321.16;;;12.81;100.00
56420;BME280;42323;52.170;7.538;2022-10-17T03:07:12;101327.19;;;12.83;100.00
56420;BME280;42323;52.170;7.538;2022-10-17T03:09:39;101325.88;;;12.87;100.00
56420;BME280;42323;52.170;7.538;2022-10-17T03:12:05;101333.72;;;12.89;100.00
56420;BME280;42323;52.170;7.538;2022-10-17T03:14:32;101326.44;;;12.91;100.00
56420;BME280;42323;52.170;7.538;2022-10-17T03:16:59;101320.38;;;12.89;100.00
56420;BME280;42323;52.170;7.538;2022-10-17T03:19:25;101308.50;;;12.83;100.00
56420;BME280;42323;52.170;7.538;2022-10-17T03:21:53;101319.88;;;12.85;100.00
56420;BME280;42323;52.170;7.538;2022-10-17T03:24:19;101318.03;;;12.86;100.00
56420;BME280;42323;52.170;7.538;2022-10-17T03:26:46;101319.72;;;12.87;100.00
56420;BME280;42323;52.170;7.538;2022-10-17T03:29:13;101322.38;;;12.87;100.00
56420;BME280;42323;52.170;7.538;2022-10-17T03:31:40;101321.38;;;12.88;100.00
56420;BME280;42323;52.170;7.538;2022-10-17T03:34:06;101316.03;;;12.88;100.00
56420;BME280;42323;52.170;7.538;2022-10-17T03:36:33;101325.03;;;12.87;100.00
56420;BME280;42323;52.170;7.538;2022-10-17T03:39:00;101323.06;;;12.89;100.00
56420;BME280;42323;52.170;7.538;2022-10-17T03:41:26;101323.38;;;12.86;100.00
56420;BME280;42323;52.170;7.538;2022-10-17T03:43:53;101337.41;;;12.88;100.00
56420;BME280;42323;52.170;7.538;2022-10-17T03:46:20;101328.03;;;12.84;100.00
56420;BME280;42323;52.170;7.538;2022-10-17T03:48:46;101334.19;;;12.84;100.00
56420;BME280;42323;52.170;7.538;2022-10-17T03:51:13;101326.66;;;12.80;100.00
56420;BME280;42323;52.170;7.538;2022-10-17T03:53:40;101333.00;;;12.79;100.00
56420;BME280;42323;52.170;7.538;2022-10-17T03:56:09;101327.97;;;12.76;100.00
56420;BME280;42323;52.170;7.538;2022-10-17T03:58:36;101318.50;;;12.64;100.00
56420;BME280;42323;52.170;7.538;2022-10-17T04:01:07;101323.53;;;12.67;100.00
56420;BME280;42323;52.170;7.538;2022-10-17T04:03:34;101330.41;;;12.69;100.00
56420;BME280;42323;52.170;7.538;2022-10-17T04:06:02;101336.28;;;12.73;100.00
56420;BME280;42323;52.170;7.538;2022-10-17T04:08:29;101339.47;;;12.76;100.00
56420;BME280;42323;52.170;7.538;2022-10-17T04:10:59;101344.50;;;12.79;100.00
56420;BME280;42323;52.170;7.538;2022-10-17T04:13:27;101337.34;;;12.80;100.00
56420;BME280;42323;52.170;7.538;2022-10-17T04:16:02;101348.38;;;12.85;100.00
56420;BME280;42323;52.170;7.538;2022-10-17T04:18:29;101338.69;;;12.84;100.00
56420;BME280;42323;52.170;7.538;2022-10-17T04:20:56;101326.97;;;12.77;100.00
56420;BME280;42323;52.170;7.538;2022-10-17T04:23:22;101336.72;;;12.86;100.00
56420;BME280;42323;52.170;7.538;2022-10-17T04:25:55;101339.91;;;12.89;100.00
56420;BME280;42323;52.170;7.538;2022-10-17T04:28:23;101333.72;;;12.89;100.00
56420;BME280;42323;52.170;7.538;2022-10-17T04:31:01;101344.66;;;12.96;100.00
56420;BME280;42323;52.170;7.538;2022-10-17T04:33:30;101326.72;;;12.88;100.00
56420;BME280;42323;52.170;7.538;2022-10-17T04:36:01;101344.19;;;13.00;100.00
56420;BME280;42323;52.170;7.538;2022-10-17T04:38:29;101327.44;;;12.90;100.00
56420;BME280;42323;52.170;7.538;2022-10-17T04:40:57;101328.94;;;12.93;100.00
56420;BME280;42323;52.170;7.538;2022-10-17T04:43:23;101339.84;;;12.99;100.00
56420;BME280;42323;52.170;7.538;2022-10-17T04:45:50;101351.56;;;13.06;100.00
56420;BME280;42323;52.170;7.538;2022-10-17T04:48:17;101330.31;;;12.97;100.00
56420;BME280;42323;52.170;7.538;2022-10-17T04:50:54;101355.44;;;13.12;100.00
56420;BME280;42323;52.170;7.538;2022-10-17T04:53:22;101327.84;;;13.03;100.00
56420;BME280;42323;52.170;7.538;2022-10-17T04:55:49;101335.41;;;13.08;100.00
56420;BME280;42323;52.170;7.538;2022-10-17T04:58:16;101341.41;;;13.10;100.00
56420;BME280;42323;52.170;7.538;2022-10-17T05:00:43;101345.88;;;13.19;100.00
56420;BME280;42323;52.170;7.538;2022-10-17T05:03:11;101327.78;;;13.13;100.00
56420;BME280;42323;52.170;7.538;2022-10-17T05:05:38;101334.22;;;13.20;100.00
56420;BME280;42323;52.170;7.538;2022-10-17T05:08:07;101346.63;;;13.29;100.00
56420;BME280;42323;52.170;7.538;2022-10-17T05:10:38;101320.84;;;13.20;100.00
56420;BME280;42323;52.170;7.538;2022-10-17T05:13:05;101318.34;;;13.18;100.00
56420;BME280;42323;52.170;7.538;2022-10-17T05:15:33;101316.88;;;13.24;100.00
56420;BME280;42323;52.170;7.538;2022-10-17T05:18:00;101317.53;;;13.26;100.00
56420;BME280;42323;52.170;7.538;2022-10-17T05:20:27;101315.50;;;13.20;100.00
56420;BME280;42323;52.170;7.538;2022-10-17T05:22:54;101337.44;;;13.32;100.00
56420;BME280;42323;52.170;7.538;2022-10-17T05:25:20;101336.75;;;13.30;100.00
56420;BME280;42323;52.170;7.538;2022-10-17T05:27:47;101312.44;;;13.15;100.00
56420;BME280;42323;52.170;7.538;2022-10-17T05:30:14;101338.13;;;13.34;100.00
56420;BME280;42323;52.170;7.538;2022-10-17T05:32:41;101336.75;;;13.30;100.00
56420;BME280;42323;52.170;7.538;2022-10-17T05:35:08;101347.13;;;13.33;100.00
56420;BME280;42323;52.170;7.538;2022-10-17T05:37:34;101332.50;;;13.37;100.00
56420;BME280;42323;52.170;7.538;2022-10-17T05:40:01;101336.69;;;13.39;100.00
56420;BME280;42323;52.170;7.538;2022-10-17T05:42:34;101346.72;;;13.45;100.00
56420;BME280;42323;52.170;7.538;2022-10-17T05:45:08;101352.75;;;13.47;100.00
56420;BME280;42323;52.170;7.538;2022-10-17T05:47:35;101370.31;;;13.50;100.00
56420;BME280;42323;52.170;7.538;2022-10-17T05:50:03;101372.81;;;13.52;100.00
56420;BME280;42323;52.170;7.538;2022-10-17T05:52:30;101366.94;;;13.48;100.00
56420;BME280;42323;52.170;7.538;2022-10-17T05:54:58;101359.94;;;13.47;100.00
56420;BME280;42323;52.170;7.538;2022-10-17T05:57:25;101376.00;;;13.55;100.00
56420;BME280;42323;52.170;7.538;2022-10-17T05:59:52;101366.47;;;13.53;100.00
56420;BME280;42323;52.170;7.538;2022-10-17T06:02:19;101377.84;;;13.55;100.00
56420;BME280;42323;52.170;7.538;2022-10-17T06:04:47;101383.19;;;13.55;100.00
56420;BME280;42323;52.170;7.538;2022-10-17T06:07:15;101378.84;;;13.54;100.00
56420;BME280;42323;52.170;7.538;2022-10-17T06:09:42;101374.59;;;13.43;100.00
56420;BME280;42323;52.170;7.538;2022-10-17T06:12:15;101347.13;;;13.33;100.00
56420;BME280;42323;52.170;7.538;2022-10-17T06:18:07;101380.06;;;13.59;100.00
56420;BME280;42323;52.170;7.538;2022-10-17T06:20:34;101387.75;;;13.62;100.00
56420;BME280;42323;52.170;7.538;2022-10-17T06:23:01;101390.47;;;13.70;100.00
56420;BME280;42323;52.170;7.538;2022-10-17T06:25:31;101394.50;;;13.74;100.00
56420;BME280;42323;52.170;7.538;2022-10-17T06:27:58;101390.69;;;13.77;100.00
56420;BME280;42323;52.170;7.538;2022-10-17T06:30:25;101400.59;;;13.85;100.00
56420;BME280;42323;52.170;7.538;2022-10-17T06:32:55;101397.75;;;13.86;100.00
56420;BME280;42323;52.170;7.538;2022-10-17T06:35:24;101398.94;;;13.84;100.00
56420;BME280;42323;52.170;7.538;2022-10-17T06:37:51;101414.00;;;13.93;100.00
56420;BME280;42323;52.170;7.538;2022-10-17T06:40:18;101416.19;;;13.97;100.00
56420;BME280;42323;52.170;7.538;2022-10-17T06:42:51;101399.97;;;13.91;100.00
56420;BME280;42323;52.170;7.538;2022-10-17T06:45:39;101377.00;;;13.80;100.00
56420;BME280;42323;52.170;7.538;2022-10-17T06:48:13;101413.88;;;14.02;100.00
56420;BME280;42323;52.170;7.538;2022-10-17T06:50:40;101442.88;;;14.15;100.00
56420;BME280;42323;52.170;7.538;2022-10-17T06:53:07;101439.19;;;14.16;100.00
56420;BME280;42323;52.170;7.538;2022-10-17T06:55:51;101449.25;;;14.22;100.00
56420;BME280;42323;52.170;7.538;2022-10-17T06:58:19;101446.25;;;14.25;100.00
56420;BME280;42323;52.170;7.538;2022-10-17T07:00:46;101439.03;;;14.18;100.00
56420;BME280;42323;52.170;7.538;2022-10-17T07:03:13;101452.84;;;14.39;100.00
56420;BME280;42323;52.170;7.538;2022-10-17T07:05:40;101449.00;;;14.41;100.00
56420;BME280;42323;52.170;7.538;2022-10-17T07:08:18;101437.13;;;14.36;100.00
56420;BME280;42323;52.170;7.538;2022-10-17T07:10:52;101398.59;;;14.21;100.00
56420;BME280;42323;52.170;7.538;2022-10-17T07:13:54;101410.19;;;14.29;100.00
56420;BME280;42323;52.170;7.538;2022-10-17T07:16:43;101445.09;;;14.54;100.00
56420;BME280;42323;52.170;7.538;2022-10-17T07:19:11;101451.47;;;14.61;100.00
56420;BME280;42323;52.170;7.538;2022-10-17T07:21:37;101457.16;;;14.66;100.00
56420;BME280;42323;52.170;7.538;2022-10-17T07:24:04;101451.66;;;14.67;100.00
56420;BME280;42323;52.170;7.538;2022-10-17T07:26:32;101462.41;;;14.76;100.00
56420;BME280;42323;52.170;7.538;2022-10-17T07:28:59;101454.88;;;14.79;100.00
56420;BME280;42323;52.170;7.538;2022-10-17T07:31:27;101462.09;;;14.87;100.00
56420;BME280;42323;52.170;7.538;2022-10-17T07:33:54;101452.88;;;14.89;100.00
56420;BME280;42323;52.170;7.538;2022-10-17T07:36:20;101460.78;;;14.99;100.00
56420;BME280;42323;52.170;7.538;2022-10-17T07:38:49;101465.31;;;15.07;100.00
56420;BME280;42323;52.170;7.538;2022-10-17T07:41:16;101470.00;;;15.13;100.00
56420;BME280;42323;52.170;7.538;2022-10-17T07:43:47;101462.50;;;15.16;100.00
56420;BME280;42323;52.170;7.538;2022-10-17T07:46:13;101468.03;;;15.23;100.00
56420;BME280;42323;52.170;7.538;2022-10-17T07:48:41;101464.69;;;15.29;100.00
56420;BME280;42323;52.170;7.538;2022-10-17T07:51:08;101471.56;;;15.40;100.00
56420;BME280;42323;52.170;7.538;2022-10-17T07:53:36;101477.09;;;15.46;100.00
56420;BME280;42323;52.170;7.538;2022-10-17T07:56:07;101456.16;;;15.50;100.00
56420;BME280;42323;52.170;7.538;2022-10-17T07:58:35;101470.25;;;15.68;100.00
56420;BME280;42323;52.170;7.538;2022-10-17T08:01:11;101466.41;;;15.71;100.00
56420;BME280;42323;52.170;7.538;2022-10-17T08:03:43;101463.03;;;15.77;100.00
56420;BME280;42323;52.170;7.538;2022-10-17T08:06:10;101474.25;;;15.88;100.00
56420;BME280;42323;52.170;7.538;2022-10-17T08:08:37;101470.41;;;15.91;100.00
56420;BME280;42323;52.170;7.538;2022-10-17T08:11:09;101465.00;;;15.99;100.00
56420;BME280;42323;52.170;7.538;2022-10-17T08:13:50;101410.09;;;15.71;100.00
56420;BME280;42323;52.170;7.538;2022-10-17T08:16:22;101451.44;;;15.92;100.00
56420;BME280;42323;52.170;7.538;2022-10-17T08:19:00;101462.31;;;15.99;100.00
56420;BME280;42323;52.170;7.538;2022-10-17T08:21:34;101440.03;;;15.99;100.00
56420;BME280;42323;52.170;7.538;2022-10-17T08:24:33;101453.25;;;16.16;100.00
56420;BME280;42323;52.170;7.538;2022-10-17T08:27:04;101462.75;;;16.35;100.00
56420;BME280;42323;52.170;7.538;2022-10-17T08:29:40;101450.34;;;16.34;100.00
56420;BME280;42323;52.170;7.538;2022-10-17T08:32:29;101459.31;;;16.49;100.00
56420;BME280;42323;52.170;7.538;2022-10-17T08:34:56;101454.75;;;16.58;100.00
56420;BME280;42323;52.170;7.538;2022-10-17T08:37:30;101415.41;;;16.42;100.00
56420;BME280;42323;52.170;7.538;2022-10-17T08:40:05;101445.00;;;16.65;100.00
56420;BME280;42323;52.170;7.538;2022-10-17T08:45:47;101425.50;;;16.71;100.00
56420;BME280;42323;52.170;7.538;2022-10-17T08:48:39;101446.25;;;16.86;100.00
56420;BME280;42323;52.170;7.538;2022-10-17T08:51:36;101452.91;;;16.98;100.00
56420;BME280;42323;52.170;7.538;2022-10-17T08:54:40;101473.25;;;17.15;100.00
56420;BME280;42323;52.170;7.538;2022-10-17T08:57:11;101455.09;;;17.17;100.00
56420;BME280;42323;52.170;7.538;2022-10-17T09:00:24;101430.53;;;17.05;100.00
56420;BME280;42323;52.170;7.538;2022-10-17T09:06:42;101485.28;;;17.50;100.00
56420;BME280;42323;52.170;7.538;2022-10-17T09:17:27;101448.13;;;17.91;100.00
56420;BME280;42323;52.170;7.538;2022-10-17T09:20:35;101472.38;;;18.21;100.00
56420;BME280;42323;52.170;7.538;2022-10-17T09:25:45;101450.53;;;18.45;100.00
56420;BME280;42323;52.170;7.538;2022-10-17T09:28:28;101422.78;;;18.45;100.00
56420;BME280;42323;52.170;7.538;2022-10-17T09:31:15;101464.28;;;18.80;100.00
56420;BME280;42323;52.170;7.538;2022-10-17T09:33:50;101446.44;;;18.79;100.00
56420;BME280;42323;52.170;7.538;2022-10-17T09:36:27;101448.03;;;19.09;100.00
56420;BME280;42323;52.170;7.538;2022-10-17T09:39:00;101446.94;;;19.04;100.00
56420;BME280;42323;52.170;7.538;2022-10-17T09:41:38;101452.78;;;19.07;100.00
56420;BME280;42323;52.170;7.538;2022-10-17T09:49:33;101483.91;;;19.10;100.00
56420;BME280;42323;52.170;7.538;2022-10-17T09:52:09;101495.13;;;19.13;100.00
56420;BME280;42323;52.170;7.538;2022-10-17T09:54:58;101505.53;;;19.16;100.00
56420;BME280;42323;52.170;7.538;2022-10-17T09:57:28;101493.72;;;19.17;100.00
56420;BME280;42323;52.170;7.538;2022-10-17T10:00:04;101510.13;;;19.22;100.00
56420;BME280;42323;52.170;7.538;2022-10-17T10:02:40;101509.91;;;19.39;100.00
56420;BME280;42323;52.170;7.538;2022-10-17T10:05:23;101501.44;;;19.42;100.00
56420;BME280;42323;52.170;7.538;2022-10-17T10:08:05;101519.13;;;19.66;100.00
56420;BME280;42323;52.170;7.538;2022-10-17T10:10:41;101509.09;;;19.60;100.00
56420;BME280;42323;52.170;7.538;2022-10-17T10:13:28;101509.03;;;19.53;100.00
56420;BME280;42323;52.170;7.538;2022-10-17T10:18:40;101527.25;;;19.51;100.00
56420;BME280;42323;52.170;7.538;2022-10-17T10:21:21;101528.84;;;19.45;100.00
56420;BME280;42323;52.170;7.538;2022-10-17T10:24:16;101524.84;;;19.56;100.00
56420;BME280;42323;52.170;7.538;2022-10-17T10:27:05;101498.47;;;19.37;100.00
56420;BME280;42323;52.170;7.538;2022-10-17T10:29:51;101510.53;;;19.41;100.00
56420;BME280;42323;52.170;7.538;2022-10-17T10:32:22;101533.50;;;19.51;100.00
56420;BME280;42323;52.170;7.538;2022-10-17T10:35:02;101546.03;;;19.59;100.00
56420;BME280;42323;52.170;7.538;2022-10-17T10:37:49;101533.78;;;19.42;100.00
56420;BME280;42323;52.170;7.538;2022-10-17T10:40:38;101505.97;;;19.20;100.00
56420;BME280;42323;52.170;7.538;2022-10-17T10:43:41;101557.66;;;19.45;100.00
56420;BME280;42323;52.170;7.538;2022-10-17T10:46:29;101557.28;;;19.26;100.00
56420;BME280;42323;52.170;7.538;2022-10-17T10:48:58;101585.53;;;19.31;100.00
56420;BME280;42323;52.170;7.538;2022-10-17T10:51:40;101579.97;;;19.17;100.00
56420;BME280;42323;52.170;7.538;2022-10-17T10:54:13;101584.91;;;19.28;100.00
56420;BME280;42323;52.170;7.538;2022-10-17T10:56:43;101610.72;;;19.38;100.00
56420;BME280;42323;52.170;7.538;2022-10-17T10:59:28;101600.03;;;19.30;100.00
56420;BME280;42323;52.170;7.538;2022-10-17T11:02:08;101600.69;;;19.32;100.00
56420;BME280;42323;52.170;7.538;2022-10-17T11:04:48;101595.78;;;19.20;100.00
56420;BME280;42323;52.170;7.538;2022-10-17T11:07:34;101607.59;;;19.19;100.00
56420;BME280;42323;52.170;7.538;2022-10-17T11:10:16;101605.38;;;19.08;100.00
56420;BME280;42323;52.170;7.538;2022-10-17T11:18:43;101602.31;;;19.11;100.00
56420;BME280;42323;52.170;7.538;2022-10-17T11:21:57;101602.66;;;19.23;100.00
56420;BME280;42323;52.170;7.538;2022-10-17T11:24:57;101594.84;;;19.28;100.00
56420;BME280;42323;52.170;7.538;2022-10-17T11:27:29;101566.03;;;19.28;100.00
56420;BME280;42323;52.170;7.538;2022-10-17T11:29:57;101560.06;;;19.18;100.00
56420;BME280;42323;52.170;7.538;2022-10-17T11:32:49;101609.44;;;19.19;100.00
56420;BME280;42323;52.170;7.538;2022-10-17T11:35:39;101616.06;;;19.16;100.00
56420;BME280;42323;52.170;7.538;2022-10-17T11:38:41;101623.13;;;19.17;100.00
56420;BME280;42323;52.170;7.538;2022-10-17T11:41:38;101636.59;;;19.17;100.00
56420;BME280;42323;52.170;7.538;2022-10-17T11:44:25;101632.59;;;18.98;100.00
56420;BME280;42323;52.170;7.538;2022-10-17T11:47:09;101632.81;;;18.82;100.00
56420;BME280;42323;52.170;7.538;2022-10-17T11:50:18;101625.94;;;18.80;100.00
56420;BME280;42323;52.170;7.538;2022-10-17T11:53:15;101630.84;;;18.76;100.00
56420;BME280;42323;52.170;7.538;2022-10-17T11:55:43;101638.91;;;18.76;100.00
56420;BME280;42323;52.170;7.538;2022-10-17T12:09:15;101675.44;;;18.41;100.00
56420;BME280;42323;52.170;7.538;2022-10-17T12:14:41;101676.63;;;18.39;100.00
56420;BME280;42323;52.170;7.538;2022-10-17T12:22:48;101672.94;;;18.17;100.00
56420;BME280;42323;52.170;7.538;2022-10-17T12:25:21;101677.34;;;18.10;100.00
56420;BME280;42323;52.170;7.538;2022-10-17T12:28:09;101697.72;;;18.12;100.00
56420;BME280;42323;52.170;7.538;2022-10-17T12:30:48;101673.16;;;18.07;100.00
56420;BME280;42323;52.170;7.538;2022-10-17T12:33:22;101678.34;;;18.17;100.00
56420;BME280;42323;52.170;7.538;2022-10-17T12:46:48;101680.59;;;18.28;100.00
56420;BME280;42323;52.170;7.538;2022-10-17T12:57:48;101690.03;;;18.24;100.00
56420;BME280;42323;52.170;7.538;2022-10-17T13:00:23;101685.69;;;18.23;100.00
56420;BME280;42323;52.170;7.538;2022-10-17T13:02:53;101688.38;;;18.23;100.00
56420;BME280;42323;52.170;7.538;2022-10-17T13:05:30;101686.78;;;18.14;100.00
56420;BME280;42323;52.170;7.538;2022-10-17T13:08:00;101694.84;;;18.14;100.00
56420;BME280;42323;52.170;7.538;2022-10-17T13:10:30;101714.19;;;18.09;100.00
56420;BME280;42323;52.170;7.538;2022-10-17T13:13:07;101710.38;;;18.03;100.00
56420;BME280;42323;52.170;7.538;2022-10-17T13:15:38;101692.19;;;18.05;100.00
56420;BME280;42323;52.170;7.538;2022-10-17T13:18:12;101692.91;;;17.99;100.00
56420;BME280;42323;52.170;7.538;2022-10-17T13:20:42;101720.78;;;18.06;100.00
56420;BME280;42323;52.170;7.538;2022-10-17T13:23:23;101716.00;;;17.94;100.00
56420;BME280;42323;52.170;7.538;2022-10-17T13:26:18;101735.13;;;17.99;100.00
56420;BME280;42323;52.170;7.538;2022-10-17T13:31:40;101718.88;;;17.92;100.00
56420;BME280;42323;52.170;7.538;2022-10-17T13:34:18;101742.06;;;17.93;100.00
56420;BME280;42323;52.170;7.538;2022-10-17T13:36:47;101732.31;;;17.92;100.00
56420;BME280;42323;52.170;7.538;2022-10-17T13:39:22;101748.00;;;17.81;100.00
56420;BME280;42323;52.170;7.538;2022-10-17T13:42:26;101745.19;;;17.74;100.00
56420;BME280;42323;52.170;7.538;2022-10-17T13:44:55;101747.03;;;17.73;100.00
56420;BME280;42323;52.170;7.538;2022-10-17T13:47:27;101751.94;;;17.70;100.00
56420;BME280;42323;52.170;7.538;2022-10-17T13:50:23;101716.22;;;17.37;100.00
56420;BME280;42323;52.170;7.538;2022-10-17T13:53:48;101764.53;;;17.61;100.00
56420;BME280;42323;52.170;7.538;2022-10-17T13:56:19;101760.16;;;17.60;100.00
56420;BME280;42323;52.170;7.538;2022-10-17T13:59:05;101766.56;;;17.59;100.00
56420;BME280;42323;52.170;7.538;2022-10-17T14:01:33;101760.22;;;17.52;100.00
56420;BME280;42323;52.170;7.538;2022-10-17T14:04:00;101759.53;;;17.50;100.00
56420;BME280;42323;52.170;7.538;2022-10-17T14:06:43;101769.28;;;17.51;100.00
56420;BME280;42323;52.170;7.538;2022-10-17T14:09:28;101765.09;;;17.49;100.00
56420;BME280;42323;52.170;7.538;2022-10-17T14:11:58;101773.81;;;17.51;100.00
56420;BME280;42323;52.170;7.538;2022-10-17T14:14:27;101770.97;;;17.52;100.00
56420;BME280;42323;52.170;7.538;2022-10-17T14:16:55;101769.47;;;17.50;100.00
56420;BME280;42323;52.170;7.538;2022-10-17T14:21:55;101765.59;;;17.52;100.00
56420;BME280;42323;52.170;7.538;2022-10-17T14:24:29;101753.28;;;17.58;100.00
56420;BME280;42323;52.170;7.538;2022-10-17T14:27:00;101745.53;;;17.63;100.00
56420;BME280;42323;52.170;7.538;2022-10-17T14:29:30;101751.28;;;17.68;100.00
56420;BME280;42323;52.170;7.538;2022-10-17T14:32:06;101765.03;;;17.73;100.00
56420;BME280;42323;52.170;7.538;2022-10-17T14:34:39;101781.00;;;17.74;100.00
56420;BME280;42323;52.170;7.538;2022-10-17T14:37:11;101792.94;;;17.72;100.00
56420;BME280;42323;52.170;7.538;2022-10-17T14:39:38;101769.41;;;17.66;100.00
56420;BME280;42323;52.170;7.538;2022-10-17T14:42:05;101776.47;;;17.67;100.00
56420;BME280;42323;52.170;7.538;2022-10-17T14:44:34;101788.41;;;17.72;100.00
56420;BME280;42323;52.170;7.538;2022-10-17T14:47:06;101790.75;;;17.75;100.00
56420;BME280;42323;52.170;7.538;2022-10-17T14:50:06;101785.53;;;17.74;100.00
56420;BME280;42323;52.170;7.538;2022-10-17T14:52:33;101790.91;;;17.74;100.00
56420;BME280;42323;52.170;7.538;2022-10-17T14:55:24;101790.75;;;17.75;100.00
56420;BME280;42323;52.170;7.538;2022-10-17T14:58:00;101799.28;;;17.79;100.00
56420;BME280;42323;52.170;7.538;2022-10-17T15:00:30;101772.78;;;17.60;100.00